Time;durP1;ratioP1;P1;durP2;ratioP2;P2;SDS_P1;SDS_P2;PMS_P1;PMS_P2;Temp;Humidity;BMP_temperature;BMP_pressure;BME280_temperature;BME280_humidity;BME280_pressure;Samples;Min_cycle;Max_cycle;Signal;HPM_P1;HPM_P2
2021/09/17 00:01:45;;;;;;;6.22;4.47;;;;;;;;;;4981223;28;20321;-81
2021/09/17 00:04:10;;;;;;;7.82;5.30;;;;;;;;;;5014910;28;20479;-81
2021/09/17 00:06:35;;;;;;;6.15;5.50;;;;;;;;;;5002337;28;20580;-81
2021/09/17 00:09:00;;;;;;;8.70;4.82;;;;;;;;;;4997665;28;20022;-81
2021/09/17 00:11:26;;;;;;;5.60;5.00;;;;;;;;;;4997969;28;20109;-81
2021/09/17 00:13:51;;;;;;;5.93;4.93;;;;;;;;;;5006728;28;20273;-81
2021/09/17 00:16:16;;;;;;;5.18;4.28;;;;;;;;;;4996206;28;20037;-81
2021/09/17 00:18:41;;;;;;;6.57;4.50;;;;;;;;;;4994022;28;20035;-81
2021/09/17 00:21:07;;;;;;;6.05;4.70;;;;;;;;;;5006045;28;20061;-81
2021/09/17 00:23:32;;;;;;;7.32;4.85;;;;;;;;;;4979934;28;20476;-81
2021/09/17 00:25:58;;;;;;;3.72;3.05;;;;;;;;;;4996718;28;20030;-81
2021/09/17 00:28:23;;;;;;;4.20;3.60;;;;;;;;;;5014504;28;20442;-82
2021/09/17 00:30:48;;;;;;;5.35;4.00;;;;;;;;;;4997805;28;20077;-81
2021/09/17 00:33:16;;;;;;;3.70;3.40;;;;;;;;;;4983873;28;20033;-81
2021/09/17 00:35:42;;;;;;;5.00;3.33;;;;;;;;;;5013842;28;20379;-81
2021/09/17 00:38:07;;;;;;;5.28;3.42;;;;;;;;;;4996768;28;20113;-81
2021/09/17 00:40:32;;;;;;;6.60;3.50;;;;;;;;;;4996934;28;20017;-82
2021/09/17 00:42:57;;;;;;;3.97;3.08;;;;;;;;;;4990483;28;20023;-81
2021/09/17 00:45:23;;;;;;;3.38;2.33;;;;;;;;;;4996363;28;20436;-81
2021/09/17 00:47:48;;;;;;;4.15;1.95;;;;;;;;;;4996336;28;20038;-81
2021/09/17 00:50:15;;;;;;;1.92;1.65;;;;;;;;;;4996984;28;20093;-81
2021/09/17 00:52:40;;;;;;;3.58;1.98;;;;;;;;;;4996514;28;20022;-81
2021/09/17 00:55:07;;;;;;;2.17;1.98;;;;;;;;;;5012587;28;20511;-81
2021/09/17 00:57:32;;;;;;;5.38;1.55;;;;;;;;;;5007457;28;20033;-81
2021/09/17 00:59:57;;;;;;;3.30;1.80;;;;;;;;;;5000885;28;20022;-81
2021/09/17 01:02:22;;;;;;;1.50;1.30;;;;;;;;;;5020926;28;20480;-81
2021/09/17 01:04:48;;;;;;;2.20;1.60;;;;;;;;;;5010693;28;20116;-80
2021/09/17 01:07:14;;;;;;;2.80;1.63;;;;;;;;;;5010983;28;20030;-81
2021/09/17 01:09:39;;;;;;;1.60;1.35;;;;;;;;;;4996087;28;20538;-81
2021/09/17 01:12:05;;;;;;;2.85;1.23;;;;;;;;;;5013626;28;20472;-81
2021/09/17 01:14:31;;;;;;;1.75;1.63;;;;;;;;;;4976666;28;20037;-81
2021/09/17 01:16:56;;;;;;;4.60;1.67;;;;;;;;;;4996332;28;20559;-81
2021/09/17 01:19:22;;;;;;;2.58;1.48;;;;;;;;;;4996110;28;20435;-82
2021/09/17 01:21:49;;;;;;;1.77;1.40;;;;;;;;;;5013692;28;20037;-82
2021/09/17 01:24:15;;;;;;;2.47;1.38;;;;;;;;;;4996659;28;20022;-82
2021/09/17 01:26:40;;;;;;;4.27;1.47;;;;;;;;;;4995969;28;20026;-81
2021/09/17 01:29:05;;;;;;;2.67;1.10;;;;;;;;;;5027017;28;20289;-82
2021/09/17 01:31:30;;;;;;;5.40;1.80;;;;;;;;;;4996424;28;20058;-81
2021/09/17 01:34:02;;;;;;;3.25;1.95;;;;;;;;;;4995603;28;20029;-82
2021/09/17 01:36:27;;;;;;;3.20;1.70;;;;;;;;;;4995861;28;20092;-81
2021/09/17 01:38:53;;;;;;;3.58;2.60;;;;;;;;;;4996067;28;20468;-81
2021/09/17 01:41:18;;;;;;;3.65;2.15;;;;;;;;;;5010430;28;20061;-81
2021/09/17 01:43:43;;;;;;;4.13;2.25;;;;;;;;;;4993695;28;20057;-81
2021/09/17 01:46:09;;;;;;;2.78;2.33;;;;;;;;;;4994620;28;20105;-80
2021/09/17 01:48:34;;;;;;;6.13;2.80;;;;;;;;;;4994963;28;20419;-82
2021/09/17 01:50:59;;;;;;;2.88;2.55;;;;;;;;;;5013610;28;20121;-82
2021/09/17 01:53:25;;;;;;;2.80;2.60;;;;;;;;;;5013195;28;20076;-82
2021/09/17 01:55:50;;;;;;;2.85;2.65;;;;;;;;;;4979078;28;20026;-82
2021/09/17 01:58:15;;;;;;;4.47;3.17;;;;;;;;;;4975615;28;20636;-81
2021/09/17 02:00:40;;;;;;;4.78;3.47;;;;;;;;;;4979061;28;20026;-82
2021/09/17 02:03:05;;;;;;;5.07;3.85;;;;;;;;;;5015421;28;20565;-81
2021/09/17 02:05:31;;;;;;;5.53;4.03;;;;;;;;;;4995250;28;20484;-81
2021/09/17 02:07:57;;;;;;;5.63;4.25;;;;;;;;;;4994700;28;20065;-81
2021/09/17 02:10:22;;;;;;;4.85;3.90;;;;;;;;;;4995549;28;20021;-81
2021/09/17 02:12:48;;;;;;;4.32;3.90;;;;;;;;;;4990583;28;20422;-82
2021/09/17 02:15:13;;;;;;;4.75;4.30;;;;;;;;;;5003378;28;20018;-83
2021/09/17 02:17:38;;;;;;;6.15;5.55;;;;;;;;;;4978136;28;20615;-82
2021/09/17 02:20:04;;;;;;;7.38;4.78;;;;;;;;;;4994794;28;20037;-82
2021/09/17 02:22:29;;;;;;;4.75;3.85;;;;;;;;;;5027304;28;20026;-82
2021/09/17 02:24:55;;;;;;;6.25;4.95;;;;;;;;;;4993390;28;20029;-81
2021/09/17 02:27:20;;;;;;;6.38;4.93;;;;;;;;;;4994733;28;20491;-82
2021/09/17 02:29:45;;;;;;;5.53;4.93;;;;;;;;;;5025513;28;20042;-82
2021/09/17 02:32:11;;;;;;;6.55;4.40;;;;;;;;;;5011344;28;20522;-82
2021/09/17 02:34:36;;;;;;;7.90;5.80;;;;;;;;;;4994955;28;20018;-82
2021/09/17 02:37:02;;;;;;;7.32;5.65;;;;;;;;;;5010466;28;20080;-81
2021/09/17 02:39:27;;;;;;;7.13;6.43;;;;;;;;;;4994729;28;20026;-82
2021/09/17 02:41:52;;;;;;;11.85;7.00;;;;;;;;;;5027532;28;20395;-82
2021/09/17 02:44:17;;;;;;;7.97;7.18;;;;;;;;;;5023816;28;20785;-82
2021/09/17 02:46:43;;;;;;;8.10;7.25;;;;;;;;;;4994227;28;20440;-81
2021/09/17 02:49:08;;;;;;;8.15;6.68;;;;;;;;;;4993601;28;20026;-82
2021/09/17 02:51:33;;;;;;;10.60;7.65;;;;;;;;;;4994575;28;20113;-82
2021/09/17 02:53:58;;;;;;;11.27;8.43;;;;;;;;;;4994250;28;20121;-81
2021/09/17 02:56:24;;;;;;;10.52;8.65;;;;;;;;;;4978491;28;20022;-82
2021/09/17 02:58:49;;;;;;;9.50;8.10;;;;;;;;;;4993434;28;20049;-82
2021/09/17 03:01:14;;;;;;;11.32;8.50;;;;;;;;;;5009415;28;20030;-82
2021/09/17 03:03:39;;;;;;;9.40;8.43;;;;;;;;;;4999206;28;20539;-82
2021/09/17 03:06:04;;;;;;;10.00;9.00;;;;;;;;;;4995902;28;20030;-82
2021/09/17 03:08:31;;;;;;;12.80;7.55;;;;;;;;;;5009015;28;20288;-82
2021/09/17 03:10:59;;;;;;;10.55;9.45;;;;;;;;;;5008206;28;20061;-82
2021/09/17 03:13:24;;;;;;;8.63;7.82;;;;;;;;;;5002709;28;20089;-82
2021/09/17 03:15:50;;;;;;;10.05;9.00;;;;;;;;;;4992576;28;20546;-81
2021/09/17 03:18:15;;;;;;;12.93;9.20;;;;;;;;;;4986236;28;20026;-82
2021/09/17 03:20:41;;;;;;;14.52;8.95;;;;;;;;;;4997322;28;20038;-82
2021/09/17 03:23:07;;;;;;;10.65;8.60;;;;;;;;;;4977531;28;20026;-83
2021/09/17 03:25:32;;;;;;;9.95;9.05;;;;;;;;;;4994152;28;20069;-82
2021/09/17 03:27:57;;;;;;;8.65;7.53;;;;;;;;;;5012345;28;20037;-83
2021/09/17 03:30:22;;;;;;;10.98;9.68;;;;;;;;;;5000526;28;20038;-82
2021/09/17 03:32:47;;;;;;;14.00;10.30;;;;;;;;;;4994082;28;20384;-82
2021/09/17 03:35:13;;;;;;;10.88;9.77;;;;;;;;;;4994046;28;20109;-82
2021/09/17 03:37:38;;;;;;;14.60;11.35;;;;;;;;;;5001978;28;20026;-82
2021/09/17 03:40:03;;;;;;;12.35;9.70;;;;;;;;;;5008200;28;20371;-82
2021/09/17 03:42:29;;;;;;;10.20;7.93;;;;;;;;;;4976558;28;20030;-82
2021/09/17 03:44:54;;;;;;;12.98;9.73;;;;;;;;;;5007595;28;20096;-82
2021/09/17 03:47:19;;;;;;;11.23;10.13;;;;;;;;;;4988442;28;20033;-82
2021/09/17 03:49:44;;;;;;;12.13;10.88;;;;;;;;;;4977505;28;20034;-82
2021/09/17 03:52:10;;;;;;;11.90;10.53;;;;;;;;;;4993755;28;20029;-81
2021/09/17 03:54:35;;;;;;;9.32;5.95;;;;;;;;;;4977656;28;20265;-81
2021/09/17 03:57:00;;;;;;;11.40;9.67;;;;;;;;;;5011516;28;20022;-81
2021/09/17 03:59:25;;;;;;;10.00;9.00;;;;;;;;;;4993804;28;20761;-81
2021/09/17 04:01:51;;;;;;;12.73;10.52;;;;;;;;;;5006858;28;20027;-80
2021/09/17 04:04:16;;;;;;;14.05;10.20;;;;;;;;;;4993717;28;20076;-81
2021/09/17 04:06:45;;;;;;;11.60;10.40;;;;;;;;;;4994175;28;20113;-80
2021/09/17 04:09:10;;;;;;;11.45;10.32;;;;;;;;;;4978993;28;20128;-81
2021/09/17 04:11:36;;;;;;;13.10;10.45;;;;;;;;;;4997736;28;20133;-82
2021/09/17 04:14:01;;;;;;;12.65;9.55;;;;;;;;;;4993055;28;20414;-81
2021/09/17 04:16:26;;;;;;;11.35;10.25;;;;;;;;;;5013947;28;20356;-80
2021/09/17 04:18:51;;;;;;;11.82;10.13;;;;;;;;;;5011714;28;20022;-81
2021/09/17 04:21:16;;;;;;;12.05;10.50;;;;;;;;;;4981070;28;20080;-81
2021/09/17 04:23:42;;;;;;;11.07;9.98;;;;;;;;;;4996868;28;20030;-80
2021/09/17 04:26:07;;;;;;;12.23;9.88;;;;;;;;;;4997469;28;20372;-81
2021/09/17 04:28:32;;;;;;;14.35;10.02;;;;;;;;;;5004896;28;20129;-81
2021/09/17 04:30:57;;;;;;;10.23;9.27;;;;;;;;;;5012663;28;20104;-81
2021/09/17 04:33:22;;;;;;;10.40;9.27;;;;;;;;;;5008160;28;20167;-81
2021/09/17 04:35:47;;;;;;;10.73;9.52;;;;;;;;;;4980670;28;20778;-82
2021/09/17 04:38:14;;;;;;;11.07;8.45;;;;;;;;;;4996950;28;20058;-81
2021/09/17 04:40:39;;;;;;;9.50;8.57;;;;;;;;;;4981050;28;20157;-81
2021/09/17 04:43:04;;;;;;;10.55;9.05;;;;;;;;;;4992759;28;20117;-81
2021/09/17 04:45:30;;;;;;;10.55;9.32;;;;;;;;;;5016888;28;20078;-82
2021/09/17 04:47:55;;;;;;;9.90;8.75;;;;;;;;;;4978318;28;20045;-81
2021/09/17 04:50:20;;;;;;;11.57;9.18;;;;;;;;;;4996392;28;20056;-82
2021/09/17 04:52:47;;;;;;;12.40;10.10;;;;;;;;;;5013009;28;20025;-81
2021/09/17 04:55:12;;;;;;;8.77;6.15;;;;;;;;;;5013585;28;20172;-81
2021/09/17 04:57:38;;;;;;;8.85;7.35;;;;;;;;;;5014068;28;20493;-81
2021/09/17 05:00:04;;;;;;;8.60;7.60;;;;;;;;;;4995493;28;20387;-79
2021/09/17 05:02:29;;;;;;;8.82;7.93;;;;;;;;;;4996205;28;20030;-80
2021/09/17 05:04:54;;;;;;;8.70;7.80;;;;;;;;;;5013463;28;20079;-80
2021/09/17 05:07:20;;;;;;;8.40;7.60;;;;;;;;;;4995921;28;20022;-80
2021/09/17 05:09:45;;;;;;;8.38;7.57;;;;;;;;;;4996063;28;20276;-80
2021/09/17 05:12:11;;;;;;;10.05;8.43;;;;;;;;;;4995101;28;20022;-81
2021/09/17 05:14:36;;;;;;;8.45;7.40;;;;;;;;;;4994061;28;20386;-84
2021/09/17 05:17:01;;;;;;;8.07;6.72;;;;;;;;;;5023628;28;20033;-85
2021/09/17 05:19:26;;;;;;;8.70;7.78;;;;;;;;;;5011258;28;20034;-84
2021/09/17 05:21:52;;;;;;;7.70;6.93;;;;;;;;;;5008801;28;20023;-84
2021/09/17 05:24:18;;;;;;;5.97;4.60;;;;;;;;;;4998528;28;20026;-83
2021/09/17 05:26:43;;;;;;;7.75;5.90;;;;;;;;;;4985713;28;20041;-82
2021/09/17 05:29:08;;;;;;;5.20;3.58;;;;;;;;;;4995394;28;20092;-84
2021/09/17 05:31:33;;;;;;;9.25;6.35;;;;;;;;;;4987263;28;20034;-83
2021/09/17 05:33:58;;;;;;;10.80;6.90;;;;;;;;;;4995783;28;20029;-83
2021/09/17 05:36:24;;;;;;;6.55;5.05;;;;;;;;;;4995778;28;20109;-83
2021/09/17 05:38:49;;;;;;;7.57;5.63;;;;;;;;;;4992901;28;20037;-83
2021/09/17 05:41:15;;;;;;;7.70;5.50;;;;;;;;;;4992089;28;20265;-83
2021/09/17 05:43:40;;;;;;;6.15;5.10;;;;;;;;;;4962772;28;20042;-83
2021/09/17 05:46:05;;;;;;;4.22;2.75;;;;;;;;;;4974794;28;20022;-81
2021/09/17 05:48:30;;;;;;;8.07;5.88;;;;;;;;;;4976006;28;20031;-80
2021/09/17 05:50:55;;;;;;;4.60;3.83;;;;;;;;;;4994591;28;20026;-79
2021/09/17 05:53:21;;;;;;;6.40;4.75;;;;;;;;;;5028302;28;20022;-80
2021/09/17 05:55:46;;;;;;;9.68;5.68;;;;;;;;;;5001773;28;20076;-79
2021/09/17 05:58:11;;;;;;;8.15;5.40;;;;;;;;;;4982225;28;20361;-82
2021/09/17 06:00:36;;;;;;;6.30;5.18;;;;;;;;;;4994312;28;20037;-82
2021/09/17 06:03:02;;;;;;;4.88;4.38;;;;;;;;;;4995023;28;20462;-83
2021/09/17 06:05:27;;;;;;;8.07;5.13;;;;;;;;;;4990187;28;20447;-82
2021/09/17 06:07:52;;;;;;;5.35;3.47;;;;;;;;;;4992159;28;20069;-83
2021/09/17 06:10:18;;;;;;;5.47;4.60;;;;;;;;;;5005845;28;20481;-82
2021/09/17 06:12:43;;;;;;;8.13;5.03;;;;;;;;;;5007467;28;20547;-82
2021/09/17 06:15:08;;;;;;;5.97;3.83;;;;;;;;;;4994855;28;20028;-82
2021/09/17 06:17:34;;;;;;;7.72;4.38;;;;;;;;;;4976273;28;20384;-80
2021/09/17 06:19:59;;;;;;;5.25;4.75;;;;;;;;;;5032377;28;20482;-82
2021/09/17 06:22:24;;;;;;;6.70;5.63;;;;;;;;;;4993923;28;20021;-81
2021/09/17 06:24:49;;;;;;;7.05;5.57;;;;;;;;;;4994685;28;20036;-81
2021/09/17 06:27:15;;;;;;;5.15;3.47;;;;;;;;;;4995042;28;20104;-80
2021/09/17 06:29:40;;;;;;;10.50;4.05;;;;;;;;;;4977118;28;20046;-81
2021/09/17 06:32:05;;;;;;;4.82;3.72;;;;;;;;;;4975110;28;20145;-82
2021/09/17 06:34:30;;;;;;;8.18;5.30;;;;;;;;;;4985200;28;20054;-82
2021/09/17 06:36:56;;;;;;;4.97;4.50;;;;;;;;;;4995184;28;20033;-82
2021/09/17 06:39:24;;;;;;;6.63;5.10;;;;;;;;;;4992486;28;20476;-82
2021/09/17 06:41:50;;;;;;;5.03;3.70;;;;;;;;;;4992523;28;20036;-81
2021/09/17 06:44:16;;;;;;;6.78;5.45;;;;;;;;;;4990617;28;20022;-80
2021/09/17 06:46:41;;;;;;;6.05;4.07;;;;;;;;;;5027502;28;20026;-81
2021/09/17 06:49:06;;;;;;;5.30;4.78;;;;;;;;;;5009096;28;20037;-80
2021/09/17 06:51:31;;;;;;;4.57;4.18;;;;;;;;;;5002196;28;20026;-81
2021/09/17 06:53:57;;;;;;;6.85;5.03;;;;;;;;;;5007681;28;20032;-80
2021/09/17 06:56:22;;;;;;;5.80;4.50;;;;;;;;;;4978308;28;20130;-80
2021/09/17 06:58:47;;;;;;;5.80;4.57;;;;;;;;;;5010753;28;20057;-81
2021/09/17 07:01:12;;;;;;;5.13;3.95;;;;;;;;;;5009994;28;20562;-83
2021/09/17 07:03:37;;;;;;;3.53;2.20;;;;;;;;;;5010641;28;20539;-80
2021/09/17 07:06:03;;;;;;;7.68;4.10;;;;;;;;;;5011945;28;20108;-81
2021/09/17 07:08:28;;;;;;;5.43;3.60;;;;;;;;;;4993949;28;20018;-83
2021/09/17 07:10:53;;;;;;;6.88;4.50;;;;;;;;;;4994260;28;20029;-81
2021/09/17 07:13:19;;;;;;;2.78;2.38;;;;;;;;;;4984075;28;20428;-81
2021/09/17 07:15:44;;;;;;;4.53;3.20;;;;;;;;;;4991834;28;20116;-81
2021/09/17 07:18:10;;;;;;;3.42;2.13;;;;;;;;;;4993990;28;20026;-81
2021/09/17 07:20:36;;;;;;;4.38;3.35;;;;;;;;;;4993730;28;20021;-81
2021/09/17 07:23:03;;;;;;;6.00;3.90;;;;;;;;;;5011032;28;20018;-82
2021/09/17 07:25:28;;;;;;;4.90;3.22;;;;;;;;;;4986969;28;20030;-81
2021/09/17 07:27:53;;;;;;;3.60;3.30;;;;;;;;;;4993684;28;20037;-81
2021/09/17 07:30:19;;;;;;;5.25;2.78;;;;;;;;;;4978370;28;20034;-82
2021/09/17 07:32:45;;;;;;;3.22;2.92;;;;;;;;;;4981093;28;20033;-81
2021/09/17 07:35:10;;;;;;;3.13;2.70;;;;;;;;;;5019823;28;20048;-81
2021/09/17 07:37:36;;;;;;;4.72;2.80;;;;;;;;;;4995164;28;20056;-81
2021/09/17 07:40:01;;;;;;;3.08;1.55;;;;;;;;;;5005500;28;20030;-81
2021/09/17 07:42:26;;;;;;;3.30;2.40;;;;;;;;;;4992923;28;20134;-82
2021/09/17 07:44:51;;;;;;;4.80;3.05;;;;;;;;;;5013243;28;20026;-81
2021/09/17 07:47:17;;;;;;;4.68;2.17;;;;;;;;;;4980352;28;20030;-81
2021/09/17 07:49:42;;;;;;;3.38;2.28;;;;;;;;;;4997938;28;20045;-81
2021/09/17 07:52:07;;;;;;;4.88;2.67;;;;;;;;;;4997578;28;20029;-81
2021/09/17 07:54:33;;;;;;;1.98;1.70;;;;;;;;;;5015114;28;20501;-81
2021/09/17 07:56:58;;;;;;;4.63;2.33;;;;;;;;;;5026357;28;20510;-77
2021/09/17 07:59:23;;;;;;;3.80;1.77;;;;;;;;;;5015440;28;20017;-78
2021/09/17 08:01:48;;;;;;;4.55;2.47;;;;;;;;;;5004687;28;20026;-79
2021/09/17 08:04:14;;;;;;;4.70;2.38;;;;;;;;;;5012271;28;20018;-77
2021/09/17 08:06:39;;;;;;;4.28;2.28;;;;;;;;;;5000645;28;20021;-79
2021/09/17 08:09:06;;;;;;;4.20;2.60;;;;;;;;;;5014248;28;20049;-79
2021/09/17 08:11:31;;;;;;;1.75;1.23;;;;;;;;;;4997198;28;20028;-79
2021/09/17 08:13:57;;;;;;;2.53;2.03;;;;;;;;;;4995542;28;20531;-78
2021/09/17 08:16:22;;;;;;;4.00;1.73;;;;;;;;;;5016481;28;20080;-78
2021/09/17 08:18:47;;;;;;;1.95;1.42;;;;;;;;;;4995220;28;20504;-78
2021/09/17 08:21:13;;;;;;;2.38;1.90;;;;;;;;;;5014750;28;20117;-79
2021/09/17 08:23:38;;;;;;;2.88;2.20;;;;;;;;;;5014978;28;20030;-79
2021/09/17 08:26:05;;;;;;;3.35;2.70;;;;;;;;;;5014882;28;20088;-78
2021/09/17 08:28:30;;;;;;;2.03;1.50;;;;;;;;;;5009157;28;20057;-78
2021/09/17 08:30:57;;;;;;;6.13;2.63;;;;;;;;;;4995192;28;20539;-78
2021/09/17 08:33:22;;;;;;;2.10;1.48;;;;;;;;;;4958331;28;20100;-79
2021/09/17 08:35:47;;;;;;;4.38;2.85;;;;;;;;;;4974453;28;20018;-79
2021/09/17 08:38:13;;;;;;;5.87;3.10;;;;;;;;;;4963501;28;20169;-78
2021/09/17 08:40:38;;;;;;;4.32;2.28;;;;;;;;;;4992973;28;20793;-79
2021/09/17 08:43:03;;;;;;;4.20;1.98;;;;;;;;;;4968167;28;20030;-79
2021/09/17 08:45:29;;;;;;;5.28;2.22;;;;;;;;;;4975565;28;20049;-79
2021/09/17 08:47:57;;;;;;;2.17;1.95;;;;;;;;;;4957752;28;20039;-78
2021/09/17 08:50:22;;;;;;;3.20;2.22;;;;;;;;;;4977665;28;20040;-79
2021/09/17 08:52:48;;;;;;;3.35;2.05;;;;;;;;;;4967262;28;20477;-78
2021/09/17 08:55:13;;;;;;;3.45;1.90;;;;;;;;;;4973581;28;20027;-79
2021/09/17 08:57:38;;;;;;;2.50;2.30;;;;;;;;;;4958000;28;20165;-79
2021/09/17 09:00:04;;;;;;;3.28;2.53;;;;;;;;;;4974591;28;20069;-79
2021/09/17 09:02:30;;;;;;;2.92;2.15;;;;;;;;;;4956824;28;20105;-79
2021/09/17 09:05:00;;;;;;;2.63;2.42;;;;;;;;;;4965697;28;20513;-80
2021/09/17 09:07:27;;;;;;;2.72;2.28;;;;;;;;;;4967884;28;20480;-79
2021/09/17 09:09:53;;;;;;;2.13;1.90;;;;;;;;;;4979912;28;20037;-79
2021/09/17 09:12:18;;;;;;;3.05;2.10;;;;;;;;;;4967347;28;20477;-80
2021/09/17 09:14:44;;;;;;;4.43;3.05;;;;;;;;;;4976878;28;20023;-80
2021/09/17 09:17:09;;;;;;;3.55;2.60;;;;;;;;;;4979108;28;20026;-78
2021/09/17 09:19:35;;;;;;;1.73;1.60;;;;;;;;;;4979309;28;20384;-81
2021/09/17 09:22:04;;;;;;;2.78;1.83;;;;;;;;;;4966661;28;20282;-80
2021/09/17 09:24:30;;;;;;;1.45;1.35;;;;;;;;;;4993394;28;20097;-79
2021/09/17 09:27:10;;;;;;;2.10;1.92;;;;;;;;;;4980172;28;20030;-81
2021/09/17 09:29:35;;;;;;;1.38;1.27;;;;;;;;;;5013776;28;20434;-82
2021/09/17 09:32:00;;;;;;;2.90;2.70;;;;;;;;;;5016937;28;20021;-83
2021/09/17 09:34:46;;;;;;;3.45;3.15;;;;;;;;;;5005963;28;20030;-84
2021/09/17 09:37:11;;;;;;;;;;;;;;;;;;4995636;28;20033;-85
2021/09/17 09:39:52;;;;;;;4.10;3.70;;;;;;;;;;4995506;28;19913;-85
2021/09/17 09:42:19;;;;;;;7.05;4.07;;;;;;;;;;4994768;28;20105;-84
2021/09/17 09:45:04;;;;;;;5.00;4.50;;;;;;;;;;4992963;28;20037;-84
2021/09/17 09:47:33;;;;;;;3.95;3.72;;;;;;;;;;4992991;28;20228;-85
2021/09/17 09:50:06;;;;;;;2.70;2.22;;;;;;;;;;5011990;28;20495;-86
2021/09/17 09:52:31;;;;;;;5.25;4.30;;;;;;;;;;4995626;28;20354;-85
2021/09/17 09:54:56;;;;;;;3.67;3.38;;;;;;;;;;5006139;28;20049;-85
2021/09/17 09:57:22;;;;;;;5.43;3.70;;;;;;;;;;5011867;28;20032;-86
2021/09/17 09:59:51;;;;;;;3.30;3.00;;;;;;;;;;4994920;28;20080;-87
2021/09/17 10:02:17;;;;;;;3.22;2.88;;;;;;;;;;4999831;28;20077;-88
2021/09/17 10:04:42;;;;;;;2.63;2.20;;;;;;;;;;5016748;28;20391;-88
2021/09/17 10:07:09;;;;;;;1.70;1.60;;;;;;;;;;5001483;28;20069;-88
2021/09/17 10:09:37;;;;;;;2.45;2.30;;;;;;;;;;4994649;28;20042;-80
2021/09/17 10:12:04;;;;;;;2.53;2.20;;;;;;;;;;5009314;28;20026;-80
2021/09/17 10:14:30;;;;;;;2.92;2.30;;;;;;;;;;4992847;28;20097;-81
2021/09/17 10:16:57;;;;;;;2.38;2.20;;;;;;;;;;4994808;28;20368;-81
2021/09/17 10:19:22;;;;;;;3.42;2.22;;;;;;;;;;4994316;28;20428;-81
2021/09/17 10:21:49;;;;;;;2.45;2.00;;;;;;;;;;4994238;28;20026;-81
2021/09/17 10:24:27;;;;;;;2.30;2.20;;;;;;;;;;4994041;28;20029;-80
2021/09/17 10:26:55;;;;;;;1.40;0.98;;;;;;;;;;5002090;28;20034;-80
2021/09/17 10:29:41;;;;;;;2.13;1.92;;;;;;;;;;4994125;28;20551;-80
2021/09/17 10:32:08;;;;;;;3.47;2.00;;;;;;;;;;5007818;28;20026;-80
2021/09/17 10:34:33;;;;;;;2.13;1.90;;;;;;;;;;4974900;28;20037;-80
2021/09/17 10:36:58;;;;;;;1.63;1.40;;;;;;;;;;4989759;28;20113;-79
2021/09/17 10:39:24;;;;;;;2.22;2.03;;;;;;;;;;4998835;28;20265;-79
2021/09/17 10:42:11;;;;;;;2.47;2.25;;;;;;;;;;4993702;28;20119;-79
2021/09/17 10:44:55;;;;;;;2.30;2.15;;;;;;;;;;4993052;28;20036;-80
2021/09/17 10:47:39;;;;;;;2.65;2.45;;;;;;;;;;4991914;28;20034;-79
2021/09/17 10:50:04;;;;;;;2.47;1.90;;;;;;;;;;4994364;28;20468;-80
2021/09/17 10:52:56;;;;;;;3.58;2.75;;;;;;;;;;5007295;28;20097;-79
2021/09/17 10:55:40;;;;;;;2.40;2.30;;;;;;;;;;5005211;28;20033;-77
2021/09/17 10:58:20;;;;;;;2.75;2.38;;;;;;;;;;5005145;28;20028;-79
2021/09/17 11:00:55;;;;;;;2.63;2.42;;;;;;;;;;5011328;28;20026;-78
2021/09/17 11:03:39;;;;;;;3.30;3.00;;;;;;;;;;4993479;28;20029;-80
2021/09/17 11:06:20;;;;;;;3.20;2.58;;;;;;;;;;4993562;28;20051;-78
2021/09/17 11:08:45;;;;;;;2.88;2.58;;;;;;;;;;4993527;28;20036;-79
2021/09/17 11:11:20;;;;;;;3.83;2.83;;;;;;;;;;5011625;28;20018;-79
2021/09/17 11:13:46;;;;;;;3.25;3.05;;;;;;;;;;4981283;28;20077;-79
2021/09/17 11:16:18;;;;;;;1.80;1.70;;;;;;;;;;4992909;28;20037;-79
2021/09/17 11:19:10;;;;;;;3.30;2.47;;;;;;;;;;5009248;28;20040;-79
2021/09/17 11:21:36;;;;;;;2.22;2.10;;;;;;;;;;5013207;28;20479;-79
2021/09/17 11:24:02;;;;;;;1.50;1.40;;;;;;;;;;4997429;28;20022;-80
2021/09/17 11:26:32;;;;;;;1.90;1.70;;;;;;;;;;4998182;28;20392;-79
2021/09/17 11:28:58;;;;;;;4.10;2.00;;;;;;;;;;5015202;28;20070;-78
2021/09/17 11:31:26;;;;;;;2.05;1.92;;;;;;;;;;4994899;28;20057;-78
2021/09/17 11:33:55;;;;;;;3.97;1.92;;;;;;;;;;4997923;28;20018;-79
2021/09/17 11:36:32;;;;;;;2.40;2.20;;;;;;;;;;4997997;28;20025;-79
2021/09/17 11:39:09;;;;;;;2.70;1.83;;;;;;;;;;5015927;28;20022;-80
2021/09/17 11:41:38;;;;;;;1.98;1.88;;;;;;;;;;4988480;28;20072;-79
2021/09/17 11:44:03;;;;;;;2.47;2.28;;;;;;;;;;4995454;28;20443;-79
2021/09/17 11:46:29;;;;;;;2.63;2.08;;;;;;;;;;4997900;28;20121;-79
2021/09/17 11:48:54;;;;;;;2.65;2.45;;;;;;;;;;4997336;28;20038;-79
2021/09/17 11:51:20;;;;;;;2.65;2.28;;;;;;;;;;5015311;28;20475;-80
2021/09/17 11:53:46;;;;;;;2.40;2.17;;;;;;;;;;5035374;28;20319;-80
2021/09/17 11:56:11;;;;;;;2.58;1.63;;;;;;;;;;4990303;28;20476;-80
2021/09/17 11:58:40;;;;;;;5.50;1.83;;;;;;;;;;4999569;28;20134;-80
2021/09/17 12:01:15;;;;;;;2.72;2.40;;;;;;;;;;4995159;28;20284;-80
2021/09/17 12:03:40;;;;;;;3.78;2.08;;;;;;;;;;4984617;28;20023;-79
2021/09/17 12:06:05;;;;;;;2.72;2.28;;;;;;;;;;5003455;28;20046;-80
2021/09/17 12:08:31;;;;;;;2.08;1.98;;;;;;;;;;4968517;28;20121;-80
2021/09/17 12:11:00;;;;;;;1.67;1.35;;;;;;;;;;4984372;28;20053;-79
2021/09/17 12:13:25;;;;;;;2.83;2.10;;;;;;;;;;4994405;28;20025;-80
2021/09/17 12:15:55;;;;;;;3.15;2.05;;;;;;;;;;4996818;28;20388;-79
2021/09/17 12:18:21;;;;;;;1.70;1.60;;;;;;;;;;5013973;28;20457;-80
2021/09/17 12:20:46;;;;;;;3.25;2.08;;;;;;;;;;4996373;28;20077;-79
2021/09/17 12:23:12;;;;;;;2.45;2.00;;;;;;;;;;4998020;28;20052;-79
2021/09/17 12:25:38;;;;;;;2.20;2.03;;;;;;;;;;4996702;28;20060;-79
2021/09/17 12:28:04;;;;;;;2.13;1.92;;;;;;;;;;4996790;28;20030;-80
2021/09/17 12:30:31;;;;;;;4.05;2.35;;;;;;;;;;5011083;28;20372;-80
2021/09/17 12:33:07;;;;;;;2.58;2.38;;;;;;;;;;4960767;28;20089;-80
2021/09/17 12:35:33;;;;;;;5.07;2.13;;;;;;;;;;4979998;28;20026;-79
2021/09/17 12:37:58;;;;;;;2.10;1.88;;;;;;;;;;4994962;28;20165;-79
2021/09/17 12:40:31;;;;;;;2.50;2.22;;;;;;;;;;4977318;28;20109;-75
2021/09/17 12:43:01;;;;;;;2.83;1.83;;;;;;;;;;4985093;28;20034;-79
2021/09/17 12:45:26;;;;;;;3.78;2.00;;;;;;;;;;4983724;28;20114;-79
2021/09/17 12:47:52;;;;;;;2.15;1.60;;;;;;;;;;4957771;28;20166;-79
2021/09/17 12:50:18;;;;;;;1.52;1.40;;;;;;;;;;4958075;28;20023;-79
2021/09/17 12:52:45;;;;;;;3.20;1.33;;;;;;;;;;4965547;28;20034;-79
2021/09/17 12:55:20;;;;;;;1.40;1.30;;;;;;;;;;4976807;28;20059;-79
2021/09/17 12:57:52;;;;;;;1.63;1.17;;;;;;;;;;4976690;28;20100;-78
2021/09/17 13:00:17;;;;;;;4.65;1.50;;;;;;;;;;4976709;28;20035;-79
2021/09/17 13:02:43;;;;;;;1.80;1.67;;;;;;;;;;4976062;28;20499;-79
2021/09/17 13:05:10;;;;;;;1.70;1.60;;;;;;;;;;4967483;28;20019;-79
2021/09/17 13:07:35;;;;;;;2.95;2.00;;;;;;;;;;4977181;28;20138;-79
2021/09/17 13:10:01;;;;;;;2.03;1.73;;;;;;;;;;4957177;28;20154;-78
2021/09/17 13:12:27;;;;;;;2.70;1.90;;;;;;;;;;4984940;28;20022;-79
2021/09/17 13:14:52;;;;;;;2.30;1.42;;;;;;;;;;4980900;28;20353;-78
2021/09/17 13:17:17;;;;;;;3.00;1.77;;;;;;;;;;4983097;28;20030;-80
2021/09/17 13:19:43;;;;;;;2.72;1.85;;;;;;;;;;4974270;28;20085;-80
2021/09/17 13:22:08;;;;;;;2.47;1.50;;;;;;;;;;4976510;28;20023;-79
2021/09/17 13:24:33;;;;;;;1.98;1.58;;;;;;;;;;4972603;28;20515;-79
2021/09/17 13:26:58;;;;;;;1.23;1.02;;;;;;;;;;4976444;28;20033;-81
2021/09/17 13:29:24;;;;;;;1.50;1.40;;;;;;;;;;4989453;28;20056;-80
2021/09/17 13:31:49;;;;;;;1.52;1.35;;;;;;;;;;4994930;28;20027;-80
2021/09/17 13:34:14;;;;;;;0.98;0.57;;;;;;;;;;5010543;28;20037;-80
2021/09/17 13:36:39;;;;;;;2.95;1.00;;;;;;;;;;4995024;28;20030;-78
2021/09/17 13:39:04;;;;;;;1.58;0.60;;;;;;;;;;4995274;28;20026;-80
2021/09/17 13:41:30;;;;;;;0.80;0.70;;;;;;;;;;5008555;28;20026;-79
2021/09/17 13:43:55;;;;;;;1.30;0.80;;;;;;;;;;4993110;28;20066;-81
2021/09/17 13:46:20;;;;;;;1.15;0.70;;;;;;;;;;4993811;28;20022;-79
2021/09/17 13:48:45;;;;;;;0.88;0.50;;;;;;;;;;4994840;28;20052;-80
2021/09/17 13:51:11;;;;;;;0.80;0.67;;;;;;;;;;4979339;28;20049;-79
2021/09/17 13:53:36;;;;;;;3.83;1.10;;;;;;;;;;4995483;28;20271;-79
2021/09/17 13:56:02;;;;;;;1.55;0.95;;;;;;;;;;5007305;28;20404;-80
2021/09/17 13:58:27;;;;;;;1.50;1.00;;;;;;;;;;5018727;28;20022;-82
2021/09/17 14:00:52;;;;;;;1.25;0.93;;;;;;;;;;4995211;28;20034;-82
2021/09/17 14:03:18;;;;;;;1.63;0.75;;;;;;;;;;4975600;28;20108;-79
2021/09/17 14:05:43;;;;;;;1.20;0.55;;;;;;;;;;4996091;28;20062;-81
2021/09/17 14:08:08;;;;;;;1.35;0.88;;;;;;;;;;4977026;28;20113;-82
2021/09/17 14:10:34;;;;;;;0.63;0.53;;;;;;;;;;5008637;28;20019;-82
2021/09/17 14:12:59;;;;;;;0.38;0.35;;;;;;;;;;4992346;28;20778;-80
2021/09/17 14:15:25;;;;;;;0.60;0.30;;;;;;;;;;4996163;28;20246;-79
2021/09/17 14:17:50;;;;;;;2.25;0.60;;;;;;;;;;5010422;28;20025;-79
2021/09/17 14:20:15;;;;;;;1.45;0.28;;;;;;;;;;4992994;28;20026;-79
2021/09/17 14:22:41;;;;;;;1.77;0.60;;;;;;;;;;5005723;28;20041;-80
2021/09/17 14:25:07;;;;;;;0.93;0.70;;;;;;;;;;4974958;28;20137;-78
2021/09/17 14:27:33;;;;;;;1.13;0.60;;;;;;;;;;5010271;28;20503;-79
2021/09/17 14:29:58;;;;;;;1.30;0.65;;;;;;;;;;5007527;28;20072;-78
2021/09/17 14:32:24;;;;;;;1.30;0.88;;;;;;;;;;5000033;28;20065;-79
2021/09/17 14:34:49;;;;;;;0.90;0.47;;;;;;;;;;4999180;28;20117;-80
2021/09/17 14:37:15;;;;;;;2.60;0.85;;;;;;;;;;4997163;28;20049;-81